< < Back
Terminal Aerodrome Forecast


Current Version              Previous Versions:   1  2  3  4  5  6  7  8  9  

Terminal Aerodrome Forecast

956
FTUS42 KFFC 221740
TAFMCN
TAF
KMCN 221740Z 2218/2318 04006KT P6SM FEW045
     FM230200 00000KT P6SM SKC
     FM231400 09007KT P6SM FEW045=

Latest METAR

629
SAUS80 KWBC 230400 RRA
MTRMCN
METAR KMCN 230353Z AUTO 00000KT 10SM CLR 16/14 A3025 RMK AO2 SLP240
T01610144 TSNO


USA.gov is the U.S. government's official web portal to all federal, state and local government web resources and services.